Terminal Aerodrome Forecast
Issued by NWS

Home | Current Version | Previous Version | Text Only | Print | Product List | Glossary On
Versions: 1 2 3 4 5 6 7 8 9 10 11 12 13 14 15
000
FTUS45 KRIW 231100
TAFRKS
TAF
KRKS 231123Z 2312/2412 15006KT P6SM VCFG FEW005 SCT025
     FM231600 18006KT P6SM SCT040
     FM232000 19005KT P6SM VCTS SCT050CB BKN100
     FM240200 06008KT P6SM VCSH BKN050
     FM240600 07010KT P6SM -SHRA OVC030=

USA.gov is the U.S. government's official web portal to all federal, state and local government web resources and services.